sensor_id;sensor_type;location;lat;lon;timestamp;P1;durP1;ratioP1;P2;durP2;ratioP2
27209;SDS011;14721;42.668;23.386;2023-06-10T00:01:44;9.63;;;4.95;;
27209;SDS011;14721;42.668;23.386;2023-06-10T00:04:13;6.75;;;5.13;;
27209;SDS011;14721;42.668;23.386;2023-06-10T00:06:40;9.95;;;5.50;;
27209;SDS011;14721;42.668;23.386;2023-06-10T00:09:06;13.25;;;6.65;;
27209;SDS011;14721;42.668;23.386;2023-06-10T00:11:36;10.57;;;6.22;;
27209;SDS011;14721;42.668;23.386;2023-06-10T00:14:02;8.93;;;5.80;;
27209;SDS011;14721;42.668;23.386;2023-06-10T00:16:28;8.18;;;5.70;;
27209;SDS011;14721;42.668;23.386;2023-06-10T00:18:54;12.38;;;7.05;;
27209;SDS011;14721;42.668;23.386;2023-06-10T00:21:26;8.32;;;5.97;;
27209;SDS011;14721;42.668;23.386;2023-06-10T00:24:11;13.52;;;7.15;;
27209;SDS011;14721;42.668;23.386;2023-06-10T00:26:37;11.13;;;5.88;;
27209;SDS011;14721;42.668;23.386;2023-06-10T00:29:04;7.45;;;5.43;;
27209;SDS011;14721;42.668;23.386;2023-06-10T00:31:30;13.05;;;7.38;;
27209;SDS011;14721;42.668;23.386;2023-06-10T00:33:55;8.27;;;5.65;;
27209;SDS011;14721;42.668;23.386;2023-06-10T00:36:21;16.58;;;7.97;;
27209;SDS011;14721;42.668;23.386;2023-06-10T00:38:46;11.27;;;6.70;;
27209;SDS011;14721;42.668;23.386;2023-06-10T00:41:12;11.02;;;5.90;;
27209;SDS011;14721;42.668;23.386;2023-06-10T00:43:39;12.18;;;5.80;;
27209;SDS011;14721;42.668;23.386;2023-06-10T00:46:04;10.48;;;6.13;;
27209;SDS011;14721;42.668;23.386;2023-06-10T00:48:30;8.05;;;5.85;;
27209;SDS011;14721;42.668;23.386;2023-06-10T00:50:58;9.38;;;5.82;;
27209;SDS011;14721;42.668;23.386;2023-06-10T00:53:24;11.30;;;5.53;;
27209;SDS011;14721;42.668;23.386;2023-06-10T00:55:51;9.95;;;5.72;;
27209;SDS011;14721;42.668;23.386;2023-06-10T00:58:17;11.05;;;6.57;;
27209;SDS011;14721;42.668;23.386;2023-06-10T01:00:43;12.15;;;5.50;;
27209;SDS011;14721;42.668;23.386;2023-06-10T01:03:10;9.45;;;6.30;;
27209;SDS011;14721;42.668;23.386;2023-06-10T01:05:37;13.80;;;5.55;;
27209;SDS011;14721;42.668;23.386;2023-06-10T01:08:09;7.97;;;5.57;;
27209;SDS011;14721;42.668;23.386;2023-06-10T01:10:44;11.77;;;6.43;;
27209;SDS011;14721;42.668;23.386;2023-06-10T01:13:16;10.73;;;6.43;;
27209;SDS011;14721;42.668;23.386;2023-06-10T01:15:43;8.38;;;6.15;;
27209;SDS011;14721;42.668;23.386;2023-06-10T01:18:10;10.70;;;6.03;;
27209;SDS011;14721;42.668;23.386;2023-06-10T01:20:40;12.20;;;6.78;;
27209;SDS011;14721;42.668;23.386;2023-06-10T01:23:06;11.82;;;5.82;;
27209;SDS011;14721;42.668;23.386;2023-06-10T01:25:33;9.68;;;6.22;;
27209;SDS011;14721;42.668;23.386;2023-06-10T01:30:59;10.38;;;7.25;;
27209;SDS011;14721;42.668;23.386;2023-06-10T01:33:37;11.15;;;6.50;;
27209;SDS011;14721;42.668;23.386;2023-06-10T01:36:07;13.63;;;8.05;;
27209;SDS011;14721;42.668;23.386;2023-06-10T01:38:36;14.63;;;6.85;;
27209;SDS011;14721;42.668;23.386;2023-06-10T01:41:07;15.63;;;7.13;;
27209;SDS011;14721;42.668;23.386;2023-06-10T01:43:34;13.35;;;7.10;;
27209;SDS011;14721;42.668;23.386;2023-06-10T01:46:02;11.70;;;6.68;;
27209;SDS011;14721;42.668;23.386;2023-06-10T01:48:28;10.88;;;6.82;;
27209;SDS011;14721;42.668;23.386;2023-06-10T01:50:53;10.82;;;6.85;;
27209;SDS011;14721;42.668;23.386;2023-06-10T01:53:21;10.98;;;7.15;;
27209;SDS011;14721;42.668;23.386;2023-06-10T01:55:47;13.10;;;6.75;;
27209;SDS011;14721;42.668;23.386;2023-06-10T01:58:13;10.93;;;7.28;;
27209;SDS011;14721;42.668;23.386;2023-06-10T02:00:38;11.43;;;6.38;;
27209;SDS011;14721;42.668;23.386;2023-06-10T02:03:04;13.95;;;7.15;;
27209;SDS011;14721;42.668;23.386;2023-06-10T02:05:30;9.60;;;7.22;;
27209;SDS011;14721;42.668;23.386;2023-06-10T02:07:55;14.63;;;7.43;;
27209;SDS011;14721;42.668;23.386;2023-06-10T02:10:21;12.80;;;7.38;;
27209;SDS011;14721;42.668;23.386;2023-06-10T02:12:47;12.75;;;7.85;;
27209;SDS011;14721;42.668;23.386;2023-06-10T02:15:13;12.85;;;6.63;;
27209;SDS011;14721;42.668;23.386;2023-06-10T02:17:39;11.50;;;6.90;;
27209;SDS011;14721;42.668;23.386;2023-06-10T02:20:05;13.18;;;7.68;;
27209;SDS011;14721;42.668;23.386;2023-06-10T02:22:32;10.98;;;6.75;;
27209;SDS011;14721;42.668;23.386;2023-06-10T02:24:58;11.80;;;7.55;;
27209;SDS011;14721;42.668;23.386;2023-06-10T02:27:24;10.35;;;6.47;;
27209;SDS011;14721;42.668;23.386;2023-06-10T02:29:49;10.88;;;6.65;;
27209;SDS011;14721;42.668;23.386;2023-06-10T02:32:15;11.68;;;7.05;;
27209;SDS011;14721;42.668;23.386;2023-06-10T02:34:41;13.20;;;6.97;;
27209;SDS011;14721;42.668;23.386;2023-06-10T02:37:07;11.55;;;6.72;;
27209;SDS011;14721;42.668;23.386;2023-06-10T02:39:34;12.85;;;8.15;;
27209;SDS011;14721;42.668;23.386;2023-06-10T02:41:59;12.02;;;7.25;;
27209;SDS011;14721;42.668;23.386;2023-06-10T02:44:25;10.95;;;6.85;;
27209;SDS011;14721;42.668;23.386;2023-06-10T02:46:51;13.48;;;8.18;;
27209;SDS011;14721;42.668;23.386;2023-06-10T02:49:16;9.20;;;6.75;;
27209;SDS011;14721;42.668;23.386;2023-06-10T02:51:42;16.00;;;6.95;;
27209;SDS011;14721;42.668;23.386;2023-06-10T02:54:08;10.40;;;6.55;;
27209;SDS011;14721;42.668;23.386;2023-06-10T02:56:33;12.48;;;7.50;;
27209;SDS011;14721;42.668;23.386;2023-06-10T02:59:00;17.15;;;7.15;;
27209;SDS011;14721;42.668;23.386;2023-06-10T03:01:26;14.15;;;7.43;;
27209;SDS011;14721;42.668;23.386;2023-06-10T03:03:51;15.27;;;8.02;;
27209;SDS011;14721;42.668;23.386;2023-06-10T03:06:17;11.95;;;6.85;;
27209;SDS011;14721;42.668;23.386;2023-06-10T03:08:43;12.73;;;7.60;;
27209;SDS011;14721;42.668;23.386;2023-06-10T03:11:10;11.48;;;8.00;;
27209;SDS011;14721;42.668;23.386;2023-06-10T03:13:38;10.88;;;6.65;;
27209;SDS011;14721;42.668;23.386;2023-06-10T03:16:04;12.65;;;7.32;;
27209;SDS011;14721;42.668;23.386;2023-06-10T03:18:33;13.18;;;6.32;;
27209;SDS011;14721;42.668;23.386;2023-06-10T03:20:58;12.40;;;7.28;;
27209;SDS011;14721;42.668;23.386;2023-06-10T03:23:25;12.40;;;7.03;;
27209;SDS011;14721;42.668;23.386;2023-06-10T03:25:52;17.00;;;6.85;;
27209;SDS011;14721;42.668;23.386;2023-06-10T03:28:20;9.77;;;6.53;;
27209;SDS011;14721;42.668;23.386;2023-06-10T03:30:46;10.93;;;7.32;;
27209;SDS011;14721;42.668;23.386;2023-06-10T03:33:13;12.05;;;6.68;;
27209;SDS011;14721;42.668;23.386;2023-06-10T03:35:39;12.35;;;7.10;;
27209;SDS011;14721;42.668;23.386;2023-06-10T03:38:05;11.80;;;6.72;;
27209;SDS011;14721;42.668;23.386;2023-06-10T03:40:31;9.57;;;6.70;;
27209;SDS011;14721;42.668;23.386;2023-06-10T03:42:57;13.48;;;7.53;;
27209;SDS011;14721;42.668;23.386;2023-06-10T03:45:23;11.50;;;7.43;;
27209;SDS011;14721;42.668;23.386;2023-06-10T03:47:49;12.63;;;7.70;;
27209;SDS011;14721;42.668;23.386;2023-06-10T03:50:15;14.98;;;9.85;;
27209;SDS011;14721;42.668;23.386;2023-06-10T03:52:41;13.35;;;7.57;;
27209;SDS011;14721;42.668;23.386;2023-06-10T03:55:07;17.08;;;8.55;;
27209;SDS011;14721;42.668;23.386;2023-06-10T03:57:33;11.95;;;7.68;;
27209;SDS011;14721;42.668;23.386;2023-06-10T03:59:58;12.80;;;7.82;;
27209;SDS011;14721;42.668;23.386;2023-06-10T04:02:24;11.77;;;7.82;;
27209;SDS011;14721;42.668;23.386;2023-06-10T04:04:50;12.63;;;7.78;;
27209;SDS011;14721;42.668;23.386;2023-06-10T04:07:16;11.70;;;7.53;;
27209;SDS011;14721;42.668;23.386;2023-06-10T04:09:44;11.73;;;7.13;;
27209;SDS011;14721;42.668;23.386;2023-06-10T04:12:09;13.10;;;6.65;;
27209;SDS011;14721;42.668;23.386;2023-06-10T04:14:35;12.65;;;7.80;;
27209;SDS011;14721;42.668;23.386;2023-06-10T04:17:03;10.90;;;7.05;;
27209;SDS011;14721;42.668;23.386;2023-06-10T04:19:31;13.82;;;6.78;;
27209;SDS011;14721;42.668;23.386;2023-06-10T04:22:00;10.32;;;6.47;;
27209;SDS011;14721;42.668;23.386;2023-06-10T04:24:27;13.15;;;6.65;;
27209;SDS011;14721;42.668;23.386;2023-06-10T04:26:53;9.75;;;5.95;;
27209;SDS011;14721;42.668;23.386;2023-06-10T04:29:22;8.32;;;5.07;;
27209;SDS011;14721;42.668;23.386;2023-06-10T04:31:48;10.82;;;6.20;;
27209;SDS011;14721;42.668;23.386;2023-06-10T04:34:14;12.35;;;6.90;;
27209;SDS011;14721;42.668;23.386;2023-06-10T04:36:39;13.80;;;6.47;;
27209;SDS011;14721;42.668;23.386;2023-06-10T04:39:06;10.55;;;6.63;;
27209;SDS011;14721;42.668;23.386;2023-06-10T04:41:31;13.45;;;7.45;;
27209;SDS011;14721;42.668;23.386;2023-06-10T04:43:57;12.93;;;8.93;;
27209;SDS011;14721;42.668;23.386;2023-06-10T04:46:23;14.13;;;8.48;;
27209;SDS011;14721;42.668;23.386;2023-06-10T04:48:49;16.58;;;8.80;;
27209;SDS011;14721;42.668;23.386;2023-06-10T04:51:15;13.02;;;8.52;;
27209;SDS011;14721;42.668;23.386;2023-06-10T04:53:41;17.23;;;8.30;;
27209;SDS011;14721;42.668;23.386;2023-06-10T04:56:07;17.10;;;9.15;;
27209;SDS011;14721;42.668;23.386;2023-06-10T04:58:33;21.52;;;9.32;;
27209;SDS011;14721;42.668;23.386;2023-06-10T05:00:59;15.35;;;7.68;;
27209;SDS011;14721;42.668;23.386;2023-06-10T05:03:25;13.80;;;8.30;;
27209;SDS011;14721;42.668;23.386;2023-06-10T05:05:51;14.38;;;7.82;;
27209;SDS011;14721;42.668;23.386;2023-06-10T05:08:17;12.02;;;7.38;;
27209;SDS011;14721;42.668;23.386;2023-06-10T05:10:43;15.95;;;8.98;;
27209;SDS011;14721;42.668;23.386;2023-06-10T05:13:09;16.65;;;7.85;;
27209;SDS011;14721;42.668;23.386;2023-06-10T05:15:34;11.43;;;7.13;;
27209;SDS011;14721;42.668;23.386;2023-06-10T05:18:00;13.60;;;7.95;;
27209;SDS011;14721;42.668;23.386;2023-06-10T05:20:27;13.63;;;7.72;;
27209;SDS011;14721;42.668;23.386;2023-06-10T05:22:54;12.70;;;7.55;;
27209;SDS011;14721;42.668;23.386;2023-06-10T05:25:19;14.00;;;7.90;;
27209;SDS011;14721;42.668;23.386;2023-06-10T05:27:45;14.32;;;8.15;;
27209;SDS011;14721;42.668;23.386;2023-06-10T05:30:11;11.77;;;7.18;;
27209;SDS011;14721;42.668;23.386;2023-06-10T05:32:37;12.20;;;7.15;;
27209;SDS011;14721;42.668;23.386;2023-06-10T05:35:03;14.32;;;7.90;;
27209;SDS011;14721;42.668;23.386;2023-06-10T05:37:29;18.65;;;12.65;;
27209;SDS011;14721;42.668;23.386;2023-06-10T05:39:55;17.48;;;10.40;;
27209;SDS011;14721;42.668;23.386;2023-06-10T05:42:21;13.88;;;7.18;;
27209;SDS011;14721;42.668;23.386;2023-06-10T05:44:46;14.50;;;7.93;;
27209;SDS011;14721;42.668;23.386;2023-06-10T05:47:12;12.07;;;7.30;;
27209;SDS011;14721;42.668;23.386;2023-06-10T05:49:38;15.32;;;6.93;;
27209;SDS011;14721;42.668;23.386;2023-06-10T05:52:04;18.35;;;7.65;;
27209;SDS011;14721;42.668;23.386;2023-06-10T05:54:30;18.70;;;8.35;;
27209;SDS011;14721;42.668;23.386;2023-06-10T05:56:55;13.57;;;8.10;;
27209;SDS011;14721;42.668;23.386;2023-06-10T05:59:21;14.55;;;7.82;;
27209;SDS011;14721;42.668;23.386;2023-06-10T06:01:48;12.75;;;7.55;;
27209;SDS011;14721;42.668;23.386;2023-06-10T06:04:15;14.80;;;8.20;;
27209;SDS011;14721;42.668;23.386;2023-06-10T06:06:42;20.83;;;10.93;;
27209;SDS011;14721;42.668;23.386;2023-06-10T06:09:07;20.85;;;8.43;;
27209;SDS011;14721;42.668;23.386;2023-06-10T06:11:33;17.75;;;9.43;;
27209;SDS011;14721;42.668;23.386;2023-06-10T06:14:00;11.45;;;8.48;;
27209;SDS011;14721;42.668;23.386;2023-06-10T06:16:25;14.63;;;8.63;;
27209;SDS011;14721;42.668;23.386;2023-06-10T06:18:51;15.40;;;8.88;;
27209;SDS011;14721;42.668;23.386;2023-06-10T06:21:17;12.10;;;8.80;;
27209;SDS011;14721;42.668;23.386;2023-06-10T06:23:42;17.33;;;8.65;;
27209;SDS011;14721;42.668;23.386;2023-06-10T06:26:08;16.35;;;9.23;;
27209;SDS011;14721;42.668;23.386;2023-06-10T06:28:34;13.13;;;8.90;;
27209;SDS011;14721;42.668;23.386;2023-06-10T06:31:00;16.95;;;8.95;;
27209;SDS011;14721;42.668;23.386;2023-06-10T06:33:26;16.30;;;8.95;;
27209;SDS011;14721;42.668;23.386;2023-06-10T06:35:51;13.77;;;8.10;;
27209;SDS011;14721;42.668;23.386;2023-06-10T06:38:17;15.98;;;8.90;;
27209;SDS011;14721;42.668;23.386;2023-06-10T06:40:42;15.68;;;8.70;;
27209;SDS011;14721;42.668;23.386;2023-06-10T06:43:08;12.45;;;8.18;;
27209;SDS011;14721;42.668;23.386;2023-06-10T06:45:33;14.13;;;8.38;;
27209;SDS011;14721;42.668;23.386;2023-06-10T06:47:59;13.95;;;8.07;;
27209;SDS011;14721;42.668;23.386;2023-06-10T06:50:25;16.90;;;8.85;;
27209;SDS011;14721;42.668;23.386;2023-06-10T06:52:50;17.10;;;8.73;;
27209;SDS011;14721;42.668;23.386;2023-06-10T06:55:16;15.43;;;8.77;;
27209;SDS011;14721;42.668;23.386;2023-06-10T06:57:42;15.77;;;8.32;;
27209;SDS011;14721;42.668;23.386;2023-06-10T07:00:07;11.60;;;7.75;;
27209;SDS011;14721;42.668;23.386;2023-06-10T07:02:34;19.95;;;6.75;;
27209;SDS011;14721;42.668;23.386;2023-06-10T07:05:00;11.43;;;6.90;;
27209;SDS011;14721;42.668;23.386;2023-06-10T07:07:26;15.13;;;7.65;;
27209;SDS011;14721;42.668;23.386;2023-06-10T07:09:52;12.38;;;6.53;;
27209;SDS011;14721;42.668;23.386;2023-06-10T07:12:18;12.32;;;5.57;;
27209;SDS011;14721;42.668;23.386;2023-06-10T07:14:44;9.52;;;6.18;;
27209;SDS011;14721;42.668;23.386;2023-06-10T07:17:09;10.50;;;5.80;;
27209;SDS011;14721;42.668;23.386;2023-06-10T07:19:35;12.73;;;6.53;;
27209;SDS011;14721;42.668;23.386;2023-06-10T07:22:00;9.15;;;6.03;;
27209;SDS011;14721;42.668;23.386;2023-06-10T07:24:26;13.13;;;6.68;;
27209;SDS011;14721;42.668;23.386;2023-06-10T07:26:51;7.53;;;4.70;;
27209;SDS011;14721;42.668;23.386;2023-06-10T07:29:17;9.73;;;4.65;;
27209;SDS011;14721;42.668;23.386;2023-06-10T07:31:42;9.38;;;4.10;;
27209;SDS011;14721;42.668;23.386;2023-06-10T07:34:08;13.35;;;5.22;;
27209;SDS011;14721;42.668;23.386;2023-06-10T07:36:34;8.60;;;3.83;;
27209;SDS011;14721;42.668;23.386;2023-06-10T07:38:59;11.30;;;4.20;;
27209;SDS011;14721;42.668;23.386;2023-06-10T07:41:25;14.48;;;6.53;;
27209;SDS011;14721;42.668;23.386;2023-06-10T07:43:52;11.07;;;5.28;;
27209;SDS011;14721;42.668;23.386;2023-06-10T07:46:22;6.68;;;3.95;;
27209;SDS011;14721;42.668;23.386;2023-06-10T07:48:48;13.75;;;6.88;;
27209;SDS011;14721;42.668;23.386;2023-06-10T07:51:15;8.63;;;4.22;;
27209;SDS011;14721;42.668;23.386;2023-06-10T07:53:41;7.47;;;3.25;;
27209;SDS011;14721;42.668;23.386;2023-06-10T07:56:07;6.85;;;3.33;;
27209;SDS011;14721;42.668;23.386;2023-06-10T07:58:32;9.35;;;3.92;;
27209;SDS011;14721;42.668;23.386;2023-06-10T08:00:58;6.68;;;3.25;;
27209;SDS011;14721;42.668;23.386;2023-06-10T08:03:23;5.38;;;3.53;;
27209;SDS011;14721;42.668;23.386;2023-06-10T08:05:49;6.32;;;3.58;;
27209;SDS011;14721;42.668;23.386;2023-06-10T08:08:14;7.70;;;4.57;;
27209;SDS011;14721;42.668;23.386;2023-06-10T08:10:40;14.90;;;8.15;;
27209;SDS011;14721;42.668;23.386;2023-06-10T08:13:05;10.25;;;6.75;;
27209;SDS011;14721;42.668;23.386;2023-06-10T08:15:31;21.13;;;14.30;;
27209;SDS011;14721;42.668;23.386;2023-06-10T08:17:57;15.98;;;8.02;;
27209;SDS011;14721;42.668;23.386;2023-06-10T08:20:22;15.30;;;11.00;;
27209;SDS011;14721;42.668;23.386;2023-06-10T08:22:48;5.43;;;3.35;;
27209;SDS011;14721;42.668;23.386;2023-06-10T08:25:13;3.83;;;3.03;;
27209;SDS011;14721;42.668;23.386;2023-06-10T08:27:39;4.38;;;2.92;;
27209;SDS011;14721;42.668;23.386;2023-06-10T08:30:04;8.10;;;3.28;;
27209;SDS011;14721;42.668;23.386;2023-06-10T08:32:30;4.47;;;2.92;;
27209;SDS011;14721;42.668;23.386;2023-06-10T08:34:56;4.28;;;3.15;;
27209;SDS011;14721;42.668;23.386;2023-06-10T08:37:22;5.35;;;3.10;;
27209;SDS011;14721;42.668;23.386;2023-06-10T08:39:47;4.95;;;3.42;;
27209;SDS011;14721;42.668;23.386;2023-06-10T08:44:53;5.10;;;3.13;;
27209;SDS011;14721;42.668;23.386;2023-06-10T08:47:22;4.63;;;2.65;;
27209;SDS011;14721;42.668;23.386;2023-06-10T08:49:48;4.57;;;2.40;;
27209;SDS011;14721;42.668;23.386;2023-06-10T08:52:15;3.95;;;2.88;;
27209;SDS011;14721;42.668;23.386;2023-06-10T08:57:24;4.20;;;2.20;;
27209;SDS011;14721;42.668;23.386;2023-06-10T08:59:50;4.93;;;2.53;;
27209;SDS011;14721;42.668;23.386;2023-06-10T09:02:18;5.57;;;3.08;;
27209;SDS011;14721;42.668;23.386;2023-06-10T09:04:45;4.80;;;2.88;;
27209;SDS011;14721;42.668;23.386;2023-06-10T09:07:12;3.05;;;2.30;;
27209;SDS011;14721;42.668;23.386;2023-06-10T09:09:39;4.53;;;2.42;;
27209;SDS011;14721;42.668;23.386;2023-06-10T09:12:07;5.28;;;2.70;;
27209;SDS011;14721;42.668;23.386;2023-06-10T09:14:34;6.60;;;2.60;;
27209;SDS011;14721;42.668;23.386;2023-06-10T09:17:00;4.55;;;2.60;;
27209;SDS011;14721;42.668;23.386;2023-06-10T09:19:26;3.85;;;2.15;;
27209;SDS011;14721;42.668;23.386;2023-06-10T09:21:53;3.92;;;2.47;;
27209;SDS011;14721;42.668;23.386;2023-06-10T09:24:18;3.75;;;2.20;;
27209;SDS011;14721;42.668;23.386;2023-06-10T09:26:45;3.47;;;2.15;;
27209;SDS011;14721;42.668;23.386;2023-06-10T09:29:11;7.93;;;2.95;;
27209;SDS011;14721;42.668;23.386;2023-06-10T09:31:37;5.45;;;2.53;;
27209;SDS011;14721;42.668;23.386;2023-06-10T09:34:24;6.38;;;3.58;;
27209;SDS011;14721;42.668;23.386;2023-06-10T09:36:50;5.25;;;3.55;;
27209;SDS011;14721;42.668;23.386;2023-06-10T09:39:17;5.07;;;3.10;;
27209;SDS011;14721;42.668;23.386;2023-06-10T09:41:44;6.55;;;2.85;;
27209;SDS011;14721;42.668;23.386;2023-06-10T09:44:14;4.45;;;2.67;;
27209;SDS011;14721;42.668;23.386;2023-06-10T09:46:41;4.82;;;2.70;;
27209;SDS011;14721;42.668;23.386;2023-06-10T09:49:07;4.82;;;2.95;;
27209;SDS011;14721;42.668;23.386;2023-06-10T09:51:33;4.65;;;2.60;;
27209;SDS011;14721;42.668;23.386;2023-06-10T09:53:59;5.68;;;2.25;;
27209;SDS011;14721;42.668;23.386;2023-06-10T09:56:34;7.63;;;2.90;;
27209;SDS011;14721;42.668;23.386;2023-06-10T09:59:00;3.85;;;2.50;;
27209;SDS011;14721;42.668;23.386;2023-06-10T10:01:26;3.47;;;2.38;;
27209;SDS011;14721;42.668;23.386;2023-06-10T10:03:52;5.00;;;3.05;;
27209;SDS011;14721;42.668;23.386;2023-06-10T10:06:18;6.45;;;2.78;;
27209;SDS011;14721;42.668;23.386;2023-06-10T10:08:44;6.25;;;3.35;;
27209;SDS011;14721;42.668;23.386;2023-06-10T10:11:12;3.70;;;2.33;;
27209;SDS011;14721;42.668;23.386;2023-06-10T10:13:41;8.00;;;2.88;;
27209;SDS011;14721;42.668;23.386;2023-06-10T10:16:11;5.15;;;3.25;;
27209;SDS011;14721;42.668;23.386;2023-06-10T10:18:54;5.22;;;2.25;;
27209;SDS011;14721;42.668;23.386;2023-06-10T10:21:22;5.03;;;2.80;;
27209;SDS011;14721;42.668;23.386;2023-06-10T10:26:23;3.85;;;2.50;;
27209;SDS011;14721;42.668;23.386;2023-06-10T10:29:14;5.68;;;2.92;;
27209;SDS011;14721;42.668;23.386;2023-06-10T10:32:11;5.32;;;2.85;;
27209;SDS011;14721;42.668;23.386;2023-06-10T10:37:33;8.45;;;2.42;;
27209;SDS011;14721;42.668;23.386;2023-06-10T10:40:00;14.32;;;3.53;;
27209;SDS011;14721;42.668;23.386;2023-06-10T10:42:28;3.90;;;2.80;;
27209;SDS011;14721;42.668;23.386;2023-06-10T10:44:54;4.65;;;2.88;;
27209;SDS011;14721;42.668;23.386;2023-06-10T10:47:21;5.13;;;2.70;;
27209;SDS011;14721;42.668;23.386;2023-06-10T10:49:48;10.45;;;2.78;;
27209;SDS011;14721;42.668;23.386;2023-06-10T10:52:18;4.55;;;2.92;;
27209;SDS011;14721;42.668;23.386;2023-06-10T10:54:45;4.13;;;2.75;;
27209;SDS011;14721;42.668;23.386;2023-06-10T10:57:18;5.53;;;2.90;;
27209;SDS011;14721;42.668;23.386;2023-06-10T11:05:01;9.23;;;4.53;;
27209;SDS011;14721;42.668;23.386;2023-06-10T11:07:31;5.53;;;2.70;;
27209;SDS011;14721;42.668;23.386;2023-06-10T11:15:17;7.20;;;3.13;;
27209;SDS011;14721;42.668;23.386;2023-06-10T11:18:27;6.63;;;2.95;;
27209;SDS011;14721;42.668;23.386;2023-06-10T11:23:32;4.97;;;2.92;;
27209;SDS011;14721;42.668;23.386;2023-06-10T11:26:18;7.05;;;2.78;;
27209;SDS011;14721;42.668;23.386;2023-06-10T11:31:18;6.47;;;3.00;;
27209;SDS011;14721;42.668;23.386;2023-06-10T11:33:46;4.63;;;2.60;;
27209;SDS011;14721;42.668;23.386;2023-06-10T11:36:13;6.97;;;2.85;;
27209;SDS011;14721;42.668;23.386;2023-06-10T11:38:40;5.60;;;3.15;;
27209;SDS011;14721;42.668;23.386;2023-06-10T11:41:05;3.90;;;2.83;;
27209;SDS011;14721;42.668;23.386;2023-06-10T11:43:32;5.95;;;2.90;;
27209;SDS011;14721;42.668;23.386;2023-06-10T11:45:58;4.78;;;3.20;;
27209;SDS011;14721;42.668;23.386;2023-06-10T11:48:25;8.52;;;3.88;;
27209;SDS011;14721;42.668;23.386;2023-06-10T11:50:53;12.15;;;5.03;;
27209;SDS011;14721;42.668;23.386;2023-06-10T11:53:19;5.22;;;3.13;;
27209;SDS011;14721;42.668;23.386;2023-06-10T11:55:48;5.95;;;2.60;;
27209;SDS011;14721;42.668;23.386;2023-06-10T11:58:16;6.95;;;3.83;;
27209;SDS011;14721;42.668;23.386;2023-06-10T12:00:45;4.63;;;2.65;;
27209;SDS011;14721;42.668;23.386;2023-06-10T12:03:12;5.35;;;2.75;;
27209;SDS011;14721;42.668;23.386;2023-06-10T12:05:37;8.15;;;3.95;;
27209;SDS011;14721;42.668;23.386;2023-06-10T12:08:09;7.18;;;3.92;;
27209;SDS011;14721;42.668;23.386;2023-06-10T12:10:41;3.95;;;2.63;;
27209;SDS011;14721;42.668;23.386;2023-06-10T12:13:08;16.83;;;10.05;;
27209;SDS011;14721;42.668;23.386;2023-06-10T12:15:34;32.55;;;20.90;;
27209;SDS011;14721;42.668;23.386;2023-06-10T12:18:01;11.95;;;8.25;;
27209;SDS011;14721;42.668;23.386;2023-06-10T12:20:28;5.28;;;2.53;;
27209;SDS011;14721;42.668;23.386;2023-06-10T12:22:56;3.97;;;2.45;;
27209;SDS011;14721;42.668;23.386;2023-06-10T12:25:25;4.03;;;2.30;;
27209;SDS011;14721;42.668;23.386;2023-06-10T12:27:53;4.43;;;2.58;;
27209;SDS011;14721;42.668;23.386;2023-06-10T12:30:20;7.03;;;4.25;;
27209;SDS011;14721;42.668;23.386;2023-06-10T12:32:46;3.53;;;2.50;;
27209;SDS011;14721;42.668;23.386;2023-06-10T12:35:17;6.65;;;2.45;;
27209;SDS011;14721;42.668;23.386;2023-06-10T12:37:58;3.97;;;2.47;;
27209;SDS011;14721;42.668;23.386;2023-06-10T12:42:57;4.75;;;2.03;;
27209;SDS011;14721;42.668;23.386;2023-06-10T12:46:07;3.97;;;2.40;;
27209;SDS011;14721;42.668;23.386;2023-06-10T12:48:22;4.57;;;2.38;;
27209;SDS011;14721;42.668;23.386;2023-06-10T12:50:55;4.07;;;2.40;;
27209;SDS011;14721;42.668;23.386;2023-06-10T12:53:22;3.10;;;2.33;;
27209;SDS011;14721;42.668;23.386;2023-06-10T12:55:48;3.03;;;2.10;;
27209;SDS011;14721;42.668;23.386;2023-06-10T12:58:14;4.32;;;1.83;;
27209;SDS011;14721;42.668;23.386;2023-06-10T13:00:40;6.00;;;1.90;;
27209;SDS011;14721;42.668;23.386;2023-06-10T13:03:07;5.20;;;2.45;;
27209;SDS011;14721;42.668;23.386;2023-06-10T13:05:37;6.32;;;2.58;;
27209;SDS011;14721;42.668;23.386;2023-06-10T13:08:04;5.75;;;2.28;;
27209;SDS011;14721;42.668;23.386;2023-06-10T13:10:30;4.47;;;2.28;;
27209;SDS011;14721;42.668;23.386;2023-06-10T13:12:55;3.63;;;1.90;;
27209;SDS011;14721;42.668;23.386;2023-06-10T13:15:21;7.40;;;2.40;;
27209;SDS011;14721;42.668;23.386;2023-06-10T13:17:47;7.15;;;2.40;;
27209;SDS011;14721;42.668;23.386;2023-06-10T13:20:15;4.75;;;2.25;;
27209;SDS011;14721;42.668;23.386;2023-06-10T13:22:47;9.02;;;3.47;;
27209;SDS011;14721;42.668;23.386;2023-06-10T13:25:13;7.07;;;3.97;;
27209;SDS011;14721;42.668;23.386;2023-06-10T13:27:38;4.07;;;2.65;;
27209;SDS011;14721;42.668;23.386;2023-06-10T13:30:07;4.95;;;3.05;;
27209;SDS011;14721;42.668;23.386;2023-06-10T13:32:34;5.10;;;2.22;;
27209;SDS011;14721;42.668;23.386;2023-06-10T13:35:01;6.13;;;2.60;;
27209;SDS011;14721;42.668;23.386;2023-06-10T13:37:26;6.68;;;2.47;;
27209;SDS011;14721;42.668;23.386;2023-06-10T13:39:52;5.93;;;3.22;;
27209;SDS011;14721;42.668;23.386;2023-06-10T13:42:18;6.85;;;2.58;;
27209;SDS011;14721;42.668;23.386;2023-06-10T13:44:45;8.52;;;2.95;;
27209;SDS011;14721;42.668;23.386;2023-06-10T13:47:10;3.67;;;2.20;;
27209;SDS011;14721;42.668;23.386;2023-06-10T13:49:36;5.70;;;3.20;;
27209;SDS011;14721;42.668;23.386;2023-06-10T13:52:02;10.48;;;5.82;;
27209;SDS011;14721;42.668;23.386;2023-06-10T13:54:28;16.77;;;7.47;;
27209;SDS011;14721;42.668;23.386;2023-06-10T13:56:54;7.00;;;4.45;;
27209;SDS011;14721;42.668;23.386;2023-06-10T13:59:19;9.77;;;5.20;;
27209;SDS011;14721;42.668;23.386;2023-06-10T14:01:47;7.70;;;3.33;;
27209;SDS011;14721;42.668;23.386;2023-06-10T14:04:12;34.45;;;14.68;;
27209;SDS011;14721;42.668;23.386;2023-06-10T14:06:38;12.35;;;6.50;;
27209;SDS011;14721;42.668;23.386;2023-06-10T14:09:03;7.20;;;4.07;;
27209;SDS011;14721;42.668;23.386;2023-06-10T14:11:29;5.72;;;3.40;;
27209;SDS011;14721;42.668;23.386;2023-06-10T14:13:55;12.80;;;6.25;;
27209;SDS011;14721;42.668;23.386;2023-06-10T14:16:25;6.38;;;3.85;;
27209;SDS011;14721;42.668;23.386;2023-06-10T14:18:51;6.78;;;3.75;;
27209;SDS011;14721;42.668;23.386;2023-06-10T14:21:17;6.88;;;4.53;;
27209;SDS011;14721;42.668;23.386;2023-06-10T14:23:42;7.85;;;3.33;;
27209;SDS011;14721;42.668;23.386;2023-06-10T14:26:08;6.45;;;3.28;;
27209;SDS011;14721;42.668;23.386;2023-06-10T14:28:34;5.15;;;3.58;;
27209;SDS011;14721;42.668;23.386;2023-06-10T14:31:00;7.03;;;3.35;;
27209;SDS011;14721;42.668;23.386;2023-06-10T14:33:26;6.15;;;2.95;;
27209;SDS011;14721;42.668;23.386;2023-06-10T14:35:51;8.68;;;2.75;;
27209;SDS011;14721;42.668;23.386;2023-06-10T14:38:17;6.45;;;3.38;;
27209;SDS011;14721;42.668;23.386;2023-06-10T14:40:43;16.38;;;9.63;;
27209;SDS011;14721;42.668;23.386;2023-06-10T14:43:08;11.15;;;7.43;;
27209;SDS011;14721;42.668;23.386;2023-06-10T14:45:38;12.13;;;6.47;;
27209;SDS011;14721;42.668;23.386;2023-06-10T14:48:05;11.65;;;3.78;;
27209;SDS011;14721;42.668;23.386;2023-06-10T14:50:31;25.60;;;15.52;;
27209;SDS011;14721;42.668;23.386;2023-06-10T14:52:57;24.30;;;14.93;;
27209;SDS011;14721;42.668;23.386;2023-06-10T14:55:23;7.55;;;3.55;;
27209;SDS011;14721;42.668;23.386;2023-06-10T14:57:49;16.17;;;10.77;;
27209;SDS011;14721;42.668;23.386;2023-06-10T15:00:15;9.75;;;5.15;;